createdAt,value
2023-01-05T00:03:13.983Z,42.7
2023-01-05T00:08:05.586Z,42.7
2023-01-05T00:13:28.490Z,42.6
2023-01-05T00:18:35.035Z,42.6
2023-01-05T00:23:57.540Z,42.6
2023-01-05T00:29:11.738Z,42.6
2023-01-05T00:34:34.266Z,42.5
2023-01-05T00:39:25.431Z,42.4
2023-01-05T00:44:01.996Z,42.4
2023-01-05T00:49:09.327Z,42.4
2023-01-05T00:54:16.605Z,42.4
2023-01-05T00:58:52.829Z,42.3
2023-01-05T01:04:01.278Z,42.3
2023-01-05T01:09:07.365Z,42.3
2023-01-05T01:14:14.676Z,42.2
2023-01-05T01:19:22.171Z,42.2
2023-01-05T01:24:43.756Z,42.1
2023-01-05T01:29:50.920Z,42.1
2023-01-05T01:39:33.396Z,42.1
2023-01-05T01:44:55.787Z,42
2023-01-05T01:50:03.665Z,42
2023-01-05T01:55:26.320Z,41.9
2023-01-05T02:00:33.127Z,41.9
2023-01-05T02:05:42.136Z,41.9
2023-01-05T02:10:33.250Z,41.8
2023-01-05T02:15:11.842Z,42.3
2023-01-05T02:20:03.300Z,43.1
2023-01-05T02:25:17.153Z,43.9
2023-01-05T02:30:08.896Z,44.9
2023-01-05T02:34:59.735Z,45.9
2023-01-05T02:40:11.817Z,46.8
2023-01-05T02:44:32.973Z,47.7
2023-01-05T02:49:23.715Z,48.6
2023-01-05T02:54:15.525Z,49.4
2023-01-05T02:59:06.678Z,50.4
2023-01-05T03:04:15.940Z,51.4
2023-01-05T03:08:51.341Z,52.3
2023-01-05T03:13:27.109Z,53.3
2023-01-05T03:18:02.665Z,54.1
2023-01-05T03:23:09.963Z,55.1
2023-01-05T03:28:16.414Z,56
2023-01-05T03:33:08.421Z,56.7
2023-01-05T03:38:18.227Z,56.9
2023-01-05T03:43:10.343Z,56.9
2023-01-05T03:48:00.624Z,56.9
2023-01-05T03:52:52.117Z,56.9
2023-01-05T03:57:28.361Z,56.8
2023-01-05T04:02:35.947Z,56.8
2023-01-05T04:07:32.005Z,56.8
2023-01-05T04:12:23.462Z,56.8
2023-01-05T04:17:15.544Z,56.8
2023-01-05T04:22:26.900Z,56.7
2023-01-05T04:27:34.034Z,56.7
2023-01-05T04:32:41.485Z,56.6
2023-01-05T04:37:48.535Z,56.6
2023-01-05T04:42:55.683Z,56.6
2023-01-05T04:48:03.630Z,56.6
2023-01-05T04:53:10.471Z,56.5
2023-01-05T04:58:05.619Z,56.5
2023-01-05T05:03:00.318Z,56.4
2023-01-05T05:07:36.893Z,56.4
2023-01-05T05:12:28.828Z,56.4
2023-01-05T05:17:20.455Z,56.3
2023-01-05T05:22:12.557Z,56.3
2023-01-05T05:26:48.976Z,56.3
2023-01-05T05:31:40.989Z,56.3
2023-01-05T05:36:48.131Z,56.3
2023-01-05T05:41:26.625Z,56.2
2023-01-05T05:46:24.224Z,56.1
2023-01-05T05:51:31.044Z,56.1
2023-01-05T05:56:21.933Z,56.1
2023-01-05T06:01:37.332Z,56.1
2023-01-05T06:06:45.434Z,56
2023-01-05T06:12:08.382Z,56
2023-01-05T06:17:16.555Z,55.9
2023-01-05T06:22:25.643Z,55.9
2023-01-05T06:27:48.065Z,55.9
2023-01-05T06:33:11.250Z,55.8
2023-01-05T06:38:39.285Z,55.8
2023-01-05T06:44:02.807Z,55.8
2023-01-05T06:49:25.848Z,55.8
2023-01-05T06:54:50.895Z,55.7
2023-01-05T07:00:13.695Z,55.6
2023-01-05T07:05:37.633Z,55.6
2023-01-05T07:11:04.602Z,55.6
2023-01-05T07:16:33.620Z,55.6
2023-01-05T07:21:57.159Z,55.5
2023-01-05T07:27:26.109Z,55.4
2023-01-05T07:32:48.272Z,55.4
2023-01-05T07:38:20.075Z,55.4
2023-01-05T07:43:42.277Z,55.4
2023-01-05T07:48:56.375Z,55.3
2023-01-05T07:54:04.476Z,55.3
2023-01-05T07:59:27.366Z,55.3
2023-01-05T08:04:51.575Z,55.2
2023-01-05T08:10:03.678Z,55.2
2023-01-05T08:15:26.073Z,55.1
2023-01-05T08:20:53.747Z,55.1
2023-01-05T08:26:18.867Z,55.1
2023-01-05T08:31:43.163Z,55
2023-01-05T08:36:51.955Z,55
2023-01-05T08:42:19.219Z,54.9
2023-01-05T08:47:45.090Z,54.9
2023-01-05T08:53:07.710Z,54.9
2023-01-05T08:58:35.348Z,55
2023-01-05T09:04:05.359Z,55.2
2023-01-05T09:09:27.776Z,55.4
2023-01-05T09:14:50.879Z,55.7
2023-01-05T09:20:43.814Z,56.1
2023-01-05T09:25:51.116Z,56.4
2023-01-05T09:31:06.644Z,56.8
2023-01-05T09:36:29.246Z,57
2023-01-05T09:41:54.857Z,57.3
2023-01-05T09:47:19.836Z,57.6
2023-01-05T09:52:43.340Z,57.8
2023-01-05T09:58:47.014Z,58
2023-01-05T10:04:52.028Z,58.3
2023-01-05T10:10:15.242Z,58.5
2023-01-05T10:15:38.405Z,58.7
2023-01-05T10:21:41.102Z,58.8
2023-01-05T10:27:49.593Z,58.9
2023-01-05T10:33:51.847Z,59.1
2023-01-05T10:40:33.281Z,59.2
2023-01-05T10:46:33.830Z,59.5
2023-01-05T10:51:47.095Z,59.7
2023-01-05T10:57:14.354Z,60.1
2023-01-05T11:02:43.839Z,60.3
2023-01-05T11:08:51.355Z,60.6
2023-01-05T11:14:15.422Z,60.9
2023-01-05T11:19:43.498Z,61
2023-01-05T11:25:09.777Z,61.2
2023-01-05T11:30:24.117Z,61.3
2023-01-05T11:35:38.267Z,61.4
2023-01-05T11:41:06.979Z,61.5
2023-01-05T11:46:34.353Z,61.6
2023-01-05T11:52:05.984Z,61.6
2023-01-05T11:56:58.005Z,61.5
2023-01-05T12:02:22.714Z,61.6
2023-01-05T12:07:31.445Z,61.8
2023-01-05T12:12:43.599Z,61.8
2023-01-05T12:18:15.369Z,61.8
2023-01-05T12:23:25.563Z,61.7
2023-01-05T12:29:34.700Z,61.7
2023-01-05T12:38:02.480Z,61.6
2023-01-05T12:43:15.551Z,61.6
2023-01-05T12:48:40.675Z,61.6
2023-01-05T12:53:49.222Z,61.6
2023-01-05T12:58:41.308Z,61.5
2023-01-05T13:04:04.975Z,61.5
2023-01-05T13:09:10.555Z,61.4
2023-01-05T13:14:05.666Z,61.3
2023-01-05T13:19:17.378Z,61.3
2023-01-05T13:24:09.279Z,61.3
2023-01-05T13:29:37.092Z,61.3
2023-01-05T13:34:46.128Z,61.2
2023-01-05T13:40:08.319Z,61.1
2023-01-05T13:45:32.417Z,61.1
2023-01-05T13:51:18.214Z,61.1
2023-01-05T13:56:50.904Z,61
2023-01-05T14:02:43.814Z,60.9
2023-01-05T14:08:07.505Z,60.9
2023-01-05T14:13:29.935Z,60.9
2023-01-05T14:18:38.546Z,60.8
2023-01-05T14:24:04.662Z,60.8
2023-01-05T14:29:14.323Z,60.8
2023-01-05T14:34:38.371Z,60.7
2023-01-05T14:39:46.071Z,60.7
2023-01-05T14:44:59.041Z,60.6
2023-01-05T14:50:07.234Z,60.6
2023-01-05T14:55:53.901Z,60.5
2023-01-05T15:01:19.854Z,60.5
2023-01-05T15:06:46.967Z,60.4
2023-01-05T15:12:10.200Z,60.4
2023-01-05T15:17:38.989Z,60.3
2023-01-05T15:23:11.423Z,60.3
2023-01-05T15:28:29.338Z,60.3
2023-01-05T15:33:36.409Z,60.2
2023-01-05T15:38:45.231Z,60.1
2023-01-05T15:43:53.276Z,60.1
2023-01-05T15:49:00.738Z,60.1
2023-01-05T15:53:53.651Z,60
2023-01-05T15:59:16.875Z,60
2023-01-05T16:04:25.568Z,59.9
2023-01-05T16:09:33.857Z,59.9
2023-01-05T16:14:42.220Z,59.9
2023-01-05T16:20:02.919Z,59.8
2023-01-05T16:25:30.445Z,59.8
2023-01-05T16:30:38.635Z,59.7
2023-01-05T16:36:01.706Z,59.7
2023-01-05T16:41:10.688Z,59.6
2023-01-05T16:46:02.942Z,59.6
2023-01-05T16:51:20.343Z,59.6
2023-01-05T16:56:50.746Z,59.5
2023-01-05T17:01:58.486Z,59.4
2023-01-05T17:07:05.037Z,59.4
2023-01-05T17:12:13.172Z,59.4
2023-01-05T17:17:21.860Z,59.3
2023-01-05T17:22:30.122Z,59.3
2023-01-05T17:27:54.359Z,59.3
2023-01-05T17:32:31.287Z,59.2
2023-01-05T17:37:55.017Z,59.1
2023-01-05T17:42:50.029Z,59.1
2023-01-05T17:47:25.647Z,59.1
2023-01-05T17:52:33.837Z,59
2023-01-05T17:58:00.244Z,58.9
2023-01-05T18:03:24.738Z,58.9
2023-01-05T18:08:49.187Z,58.9
2023-01-05T18:14:13.257Z,58.8
2023-01-05T18:19:37.441Z,58.8
2023-01-05T18:25:01.040Z,58.8
2023-01-05T18:30:24.426Z,58.7
2023-01-05T18:35:50.690Z,58.6
2023-01-05T18:41:22.606Z,58.6
2023-01-05T18:52:13.218Z,58.5
2023-01-05T18:57:38.214Z,58.4
2023-01-05T19:02:45.999Z,58.4
2023-01-05T19:08:13.030Z,58.4
2023-01-05T19:13:36.145Z,58.3
2023-01-05T19:18:44.063Z,58.3
2023-01-05T19:24:08.282Z,58.2
2023-01-05T19:29:17.607Z,58.2
2023-01-05T19:34:41.014Z,58.1
2023-01-05T19:40:05.770Z,58.1
2023-01-05T19:45:30.443Z,58.1
2023-01-05T19:50:56.821Z,58
2023-01-05T19:56:05.404Z,57.9
2023-01-05T20:01:14.931Z,57.9
2023-01-05T20:06:23.271Z,57.8
2023-01-05T20:11:48.439Z,57.8
2023-01-05T20:27:22.568Z,57.7
2023-01-05T20:32:30.501Z,57.6
2023-01-05T20:37:53.208Z,57.6
2023-01-05T20:43:18.883Z,57.6
2023-01-05T20:48:54.327Z,57.5
2023-01-05T20:54:17.051Z,57.6
2023-01-05T20:59:41.085Z,58.2
2023-01-05T21:05:32.183Z,58.4
2023-01-05T21:10:27.135Z,58.5
2023-01-05T21:16:08.923Z,58.5
2023-01-05T21:21:16.362Z,58.4
2023-01-05T21:27:13.348Z,58.4
2023-01-05T21:32:22.038Z,58.4
2023-01-05T21:37:29.225Z,58.4
2023-01-05T21:43:18.005Z,58.3
2023-01-05T21:48:13.006Z,58.3
2023-01-05T21:53:35.626Z,58.3
2023-01-05T21:58:42.924Z,58.2
2023-01-05T22:03:51.727Z,58.2
2023-01-05T22:08:59.512Z,58.1
2023-01-05T22:14:07.418Z,58.1
2023-01-05T22:19:31.788Z,58.1
2023-01-05T22:24:54.441Z,58.1
2023-01-05T22:30:01.851Z,58
2023-01-05T22:35:11.722Z,57.9
2023-01-05T22:40:19.132Z,57.9
2023-01-05T22:45:10.057Z,57.9
2023-01-05T22:50:18.404Z,57.8
2023-01-05T22:55:41.182Z,57.8
2023-01-05T23:00:50.256Z,57.8
2023-01-05T23:10:19.090Z,57.7
2023-01-05T23:15:26.167Z,57.6
2023-01-05T23:20:48.813Z,57.6
2023-01-05T23:25:57.143Z,57.6
2023-01-05T23:31:05.988Z,57.6
2023-01-05T23:36:13.567Z,57.5
2023-01-05T23:41:37.052Z,57.4
2023-01-05T23:46:28.961Z,57.4
2023-01-05T23:51:36.484Z,57.4
2023-01-05T23:57:01.025Z,57.4
